createdAt,value
2023-07-25T00:01:20.362Z,14.23
2023-07-25T00:04:06.928Z,14.28
2023-07-25T00:06:53.464Z,14.31
2023-07-25T00:09:40.038Z,14.21
2023-07-25T00:12:26.424Z,14.13
2023-07-25T00:15:12.836Z,14.67
2023-07-25T00:17:59.362Z,14.14
2023-07-25T00:20:45.931Z,14.19
2023-07-25T00:23:32.345Z,14.18
2023-07-25T00:26:18.556Z,14.20
2023-07-25T00:29:05.619Z,14.13
2023-07-25T00:31:53.065Z,14.18
2023-07-25T00:34:39.717Z,14.08
2023-07-25T00:37:29.363Z,13.99
2023-07-25T00:40:15.806Z,14.10
2023-07-25T00:43:02.240Z,14.04
2023-07-25T00:45:49.488Z,13.65
2023-07-25T00:48:36.558Z,14.05
2023-07-25T00:51:23.582Z,13.99
2023-07-25T00:54:10.114Z,13.76
2023-07-25T00:56:56.419Z,14.00
2023-07-25T00:59:43.076Z,13.94
2023-07-25T01:02:29.654Z,13.91
2023-07-25T01:05:16.009Z,13.84
2023-07-25T01:08:02.746Z,13.80
2023-07-25T01:10:49.205Z,13.92
2023-07-25T01:13:35.647Z,13.69
2023-07-25T01:16:25.729Z,13.74
2023-07-25T01:19:12.300Z,13.60
2023-07-25T01:21:59.470Z,13.58
2023-07-25T01:24:48.482Z,13.74
2023-07-25T01:27:34.915Z,13.64
2023-07-25T01:30:21.445Z,13.81
2023-07-25T01:33:07.616Z,13.78
2023-07-25T01:35:54.132Z,13.65
2023-07-25T01:38:40.681Z,13.68
2023-07-25T01:41:27.042Z,13.66
2023-07-25T01:44:13.429Z,13.68
2023-07-25T01:46:59.830Z,13.64
2023-07-25T01:49:46.350Z,13.66
2023-07-25T01:52:33.288Z,13.47
2023-07-25T01:55:19.993Z,13.56
2023-07-25T01:58:06.159Z,13.48
2023-07-25T02:00:59.922Z,13.49
2023-07-25T02:03:46.151Z,13.50
2023-07-25T02:06:32.719Z,13.48
2023-07-25T02:09:19.308Z,13.47
2023-07-25T02:12:06.669Z,13.47
2023-07-25T02:14:53.138Z,13.42
2023-07-25T02:17:39.945Z,13.48
2023-07-25T02:20:28.233Z,13.29
2023-07-25T02:23:14.763Z,13.39
2023-07-25T02:26:02.939Z,13.50
2023-07-25T02:28:49.242Z,13.57
2023-07-25T02:31:35.753Z,13.66
2023-07-25T02:34:22.599Z,13.73
2023-07-25T02:37:08.859Z,13.51
2023-07-25T02:39:55.526Z,13.89
2023-07-25T02:42:42.709Z,14.07
2023-07-25T02:45:29.146Z,13.71
2023-07-25T02:48:16.720Z,14.14
2023-07-25T02:51:04.201Z,14.03
2023-07-25T02:53:50.516Z,13.93
2023-07-25T02:56:36.898Z,13.88
2023-07-25T02:59:23.425Z,14.04
2023-07-25T03:02:11.445Z,13.80
2023-07-25T03:04:58.174Z,14.01
2023-07-25T03:07:44.991Z,14.08
2023-07-25T03:10:31.617Z,14.06
2023-07-25T03:13:18.151Z,14.10
2023-07-25T03:16:05.036Z,14.12
2023-07-25T03:18:51.587Z,14.11
2023-07-25T03:21:38.119Z,14.10
2023-07-25T03:24:24.484Z,13.99
2023-07-25T03:27:11.153Z,14.20
2023-07-25T03:29:57.338Z,13.94
2023-07-25T03:32:44.062Z,13.90
2023-07-25T03:35:30.722Z,14.24
2023-07-25T03:38:17.240Z,14.25
2023-07-25T03:41:03.860Z,14.23
2023-07-25T03:43:49.959Z,14.16
2023-07-25T03:46:36.639Z,14.25
2023-07-25T03:49:23.047Z,14.14
2023-07-25T03:52:10.450Z,14.00
2023-07-25T03:54:56.992Z,14.30
2023-07-25T03:57:43.499Z,14.21
2023-07-25T04:00:29.972Z,14.17
2023-07-25T04:03:16.474Z,13.99
2023-07-25T04:06:02.999Z,14.19
2023-07-25T04:08:49.289Z,14.21
2023-07-25T04:11:35.820Z,14.07
2023-07-25T04:14:22.794Z,13.98
2023-07-25T04:17:09.225Z,14.12
2023-07-25T04:19:56.062Z,14.31
2023-07-25T04:22:42.587Z,14.16
2023-07-25T04:25:29.004Z,14.39
2023-07-25T04:28:15.639Z,14.34
2023-07-25T04:31:01.878Z,14.45
2023-07-25T04:33:48.251Z,13.95
2023-07-25T04:36:34.773Z,14.41
2023-07-25T04:39:21.221Z,14.45
2023-07-25T04:42:07.548Z,14.46
2023-07-25T04:44:54.883Z,14.47
2023-07-25T04:47:42.411Z,14.44
2023-07-25T04:50:28.699Z,14.51
2023-07-25T04:53:15.358Z,14.57
2023-07-25T04:56:02.563Z,14.55
2023-07-25T04:58:48.989Z,14.46
2023-07-25T05:01:36.017Z,14.61
2023-07-25T05:04:22.742Z,14.66
2023-07-25T05:07:09.200Z,14.57
2023-07-25T05:09:55.750Z,14.56
2023-07-25T05:12:42.225Z,14.82
2023-07-25T05:15:28.794Z,14.96
2023-07-25T05:18:15.424Z,14.86
2023-07-25T05:21:01.729Z,14.88
2023-07-25T05:23:48.263Z,14.89
2023-07-25T05:26:34.594Z,14.77
2023-07-25T05:29:21.344Z,15.01
2023-07-25T05:32:08.264Z,15.21
2023-07-25T05:34:54.469Z,15.27
2023-07-25T05:37:41.160Z,15.07
2023-07-25T05:40:27.849Z,14.98
2023-07-25T05:43:16.276Z,15.10
2023-07-25T05:46:03.159Z,15.08
2023-07-25T05:48:49.590Z,15.13
2023-07-25T05:51:36.126Z,15.23
2023-07-25T05:54:22.728Z,15.06
2023-07-25T05:57:09.127Z,15.21
2023-07-25T05:59:55.699Z,15.03
2023-07-25T06:02:42.276Z,15.32
2023-07-25T06:05:28.726Z,15.31
2023-07-25T06:08:15.275Z,15.39
2023-07-25T06:11:01.670Z,15.53
2023-07-25T06:13:50.279Z,15.60
2023-07-25T06:16:36.998Z,15.61
2023-07-25T06:19:23.722Z,15.65
2023-07-25T06:22:10.526Z,15.51
2023-07-25T06:24:56.850Z,15.72
2023-07-25T06:27:43.150Z,15.86
2023-07-25T06:30:29.558Z,15.94
2023-07-25T06:33:16.650Z,15.92
2023-07-25T06:36:03.040Z,16.00
2023-07-25T06:38:49.396Z,16.34
2023-07-25T06:41:36.109Z,16.42
2023-07-25T06:44:22.957Z,16.09
2023-07-25T06:47:09.244Z,16.74
2023-07-25T06:49:55.873Z,16.75
2023-07-25T06:52:42.273Z,16.69
2023-07-25T06:55:28.722Z,16.65
2023-07-25T06:58:15.252Z,16.65
2023-07-25T07:01:01.695Z,16.66
2023-07-25T07:03:50.449Z,16.60
2023-07-25T07:06:36.896Z,16.78
2023-07-25T07:09:23.431Z,16.86
2023-07-25T07:12:10.012Z,17.08
2023-07-25T07:14:56.517Z,17.08
2023-07-25T07:17:43.240Z,17.49
2023-07-25T07:20:29.494Z,17.70
2023-07-25T07:23:16.751Z,17.81
2023-07-25T07:26:03.541Z,18.04
2023-07-25T07:28:49.736Z,18.30
2023-07-25T07:31:36.314Z,18.82
2023-07-25T07:34:22.898Z,18.74
2023-07-25T07:37:09.389Z,18.86
2023-07-25T07:39:55.776Z,18.81
2023-07-25T07:42:42.381Z,19.21
2023-07-25T07:45:30.880Z,19.41
2023-07-25T07:48:17.455Z,19.96
2023-07-25T07:51:05.184Z,20.26
2023-07-25T07:53:52.050Z,20.11
2023-07-25T07:56:38.174Z,20.15
2023-07-25T07:59:24.739Z,20.31
2023-07-25T08:02:11.932Z,20.37
2023-07-25T08:04:58.608Z,20.85
2023-07-25T08:07:45.057Z,20.45
2023-07-25T08:10:31.386Z,20.50
2023-07-25T08:13:17.811Z,20.93
2023-07-25T08:16:05.690Z,20.90
2023-07-25T08:18:52.288Z,21.19
2023-07-25T08:21:39.094Z,21.11
2023-07-25T08:24:25.764Z,21.10
2023-07-25T08:27:12.101Z,21.69
2023-07-25T08:29:58.269Z,21.95
2023-07-25T08:32:44.822Z,22.05
2023-07-25T08:35:31.513Z,21.91
2023-07-25T08:38:17.951Z,21.76
2023-07-25T08:41:10.110Z,21.56
2023-07-25T08:44:02.050Z,21.23
2023-07-25T08:46:53.033Z,21.09
2023-07-25T08:49:41.723Z,21.00
2023-07-25T08:52:32.133Z,20.95
2023-07-25T08:55:19.431Z,20.79
2023-07-25T08:58:06.017Z,20.58
2023-07-25T09:03:41.211Z,20.93
2023-07-25T09:06:28.648Z,21.02
2023-07-25T09:09:14.946Z,20.83
2023-07-25T09:12:01.617Z,21.02
2023-07-25T09:14:47.994Z,21.10
2023-07-25T09:17:34.318Z,21.36
2023-07-25T09:20:21.060Z,21.57
2023-07-25T09:23:07.398Z,21.66
2023-07-25T09:26:08.065Z,21.82
2023-07-25T09:29:00.165Z,21.80
2023-07-25T09:31:47.765Z,21.94
2023-07-25T09:34:35.412Z,21.85
2023-07-25T09:37:24.117Z,22.02
2023-07-25T09:40:12.254Z,21.89
2023-07-25T09:42:58.592Z,21.85
2023-07-25T09:45:46.049Z,21.69
2023-07-25T09:48:33.812Z,21.74
2023-07-25T09:51:20.164Z,21.57
2023-07-25T09:54:09.293Z,21.55
2023-07-25T09:56:55.704Z,21.80
2023-07-25T09:59:43.211Z,22.08
2023-07-25T10:02:29.796Z,22.46
2023-07-25T10:05:16.255Z,22.42
2023-07-25T10:08:03.116Z,22.42
2023-07-25T10:10:49.643Z,22.42
2023-07-25T10:13:36.328Z,22.23
2023-07-25T10:16:23.625Z,22.24
2023-07-25T10:19:10.023Z,22.19
2023-07-25T10:21:56.604Z,22.22
2023-07-25T10:24:42.926Z,22.37
2023-07-25T10:27:29.646Z,22.59
2023-07-25T10:30:25.453Z,22.65
2023-07-25T10:33:16.704Z,22.95
2023-07-25T10:36:03.162Z,23.01
2023-07-25T10:38:49.898Z,23.07
2023-07-25T10:41:36.419Z,22.78
2023-07-25T10:44:38.410Z,22.55
2023-07-25T10:47:49.322Z,22.26
2023-07-25T10:50:44.684Z,22.39
2023-07-25T10:53:31.137Z,22.57
2023-07-25T10:56:17.683Z,22.66
2023-07-25T10:59:11.691Z,22.65
2023-07-25T11:02:00.435Z,22.68
2023-07-25T11:04:48.575Z,22.73
2023-07-25T11:07:35.437Z,22.60
2023-07-25T11:10:27.029Z,22.21
2023-07-25T11:13:14.009Z,22.01
2023-07-25T11:16:02.720Z,22.10
2023-07-25T11:18:51.033Z,21.92
2023-07-25T11:21:42.352Z,22.08
2023-07-25T11:24:28.625Z,22.03
2023-07-25T11:27:15.626Z,22.25
2023-07-25T11:30:12.245Z,22.19
2023-07-25T11:32:58.653Z,22.21
2023-07-25T11:35:45.702Z,22.40
2023-07-25T11:38:35.153Z,21.65
2023-07-25T11:41:21.735Z,20.92
2023-07-25T11:44:13.478Z,20.31
2023-07-25T11:46:59.948Z,19.58
2023-07-25T11:49:53.692Z,19.23
2023-07-25T11:52:47.001Z,18.48
2023-07-25T11:55:33.317Z,18.34
2023-07-25T11:58:20.645Z,18.16
2023-07-25T12:01:10.217Z,18.14
2023-07-25T12:03:56.837Z,17.95
2023-07-25T12:06:43.741Z,17.77
2023-07-25T12:09:30.314Z,17.66
2023-07-25T12:12:16.599Z,17.60
2023-07-25T12:15:03.907Z,17.29
2023-07-25T12:17:50.587Z,17.38
2023-07-25T12:20:52.443Z,17.12
2023-07-25T12:23:44.554Z,16.75
2023-07-25T12:26:43.764Z,16.58
2023-07-25T12:29:30.190Z,16.46
2023-07-25T12:32:16.779Z,16.63
2023-07-25T12:35:03.428Z,16.75
2023-07-25T12:37:49.553Z,16.95
2023-07-25T12:40:36.093Z,16.98
2023-07-25T12:43:22.595Z,16.81
2023-07-25T12:46:09.103Z,17.43
2023-07-25T12:48:55.746Z,17.66
2023-07-25T12:51:43.404Z,17.78
2023-07-25T12:54:29.651Z,17.62
2023-07-25T12:57:16.324Z,17.88
2023-07-25T13:00:04.904Z,17.86
2023-07-25T13:02:53.266Z,18.13
2023-07-25T13:05:39.631Z,17.99
2023-07-25T13:08:26.149Z,18.24
2023-07-25T13:11:12.838Z,18.36
2023-07-25T13:13:59.443Z,18.33
2023-07-25T13:16:45.833Z,18.29
2023-07-25T13:19:32.252Z,18.35
2023-07-25T13:22:18.724Z,18.22
2023-07-25T13:25:05.944Z,18.32
2023-07-25T13:27:52.520Z,18.72
2023-07-25T13:30:38.840Z,18.98
2023-07-25T13:33:25.297Z,19.19
2023-07-25T13:36:11.655Z,19.24
2023-07-25T13:38:58.136Z,18.96
2023-07-25T13:41:44.425Z,19.18
2023-07-25T13:44:30.876Z,19.19
2023-07-25T13:47:17.761Z,19.06
2023-07-25T13:50:04.182Z,19.10
2023-07-25T13:52:52.785Z,18.79
2023-07-25T13:55:39.225Z,18.49
2023-07-25T13:58:25.803Z,18.53
2023-07-25T14:01:12.298Z,18.37
2023-07-25T14:03:58.753Z,18.47
2023-07-25T14:06:45.615Z,18.41
2023-07-25T14:09:31.817Z,18.62
2023-07-25T14:12:18.012Z,18.72
2023-07-25T14:15:04.970Z,18.93
2023-07-25T14:17:51.472Z,19.43
2023-07-25T14:20:39.333Z,19.85
2023-07-25T14:23:25.847Z,19.88
2023-07-25T14:26:12.230Z,20.07
2023-07-25T14:28:59.220Z,19.91
2023-07-25T14:31:45.845Z,20.23
2023-07-25T14:34:32.269Z,20.36
2023-07-25T14:37:19.033Z,20.70
2023-07-25T14:40:07.398Z,20.10
2023-07-25T14:42:54.172Z,19.92
2023-07-25T14:45:40.410Z,19.59
2023-07-25T14:48:27.014Z,19.71
2023-07-25T14:51:13.452Z,19.54
2023-07-25T14:54:00.011Z,19.44
2023-07-25T14:56:46.450Z,19.18
2023-07-25T14:59:33.154Z,19.31
2023-07-25T15:02:19.885Z,19.17
2023-07-25T15:05:06.805Z,18.74
2023-07-25T15:07:54.059Z,18.78
2023-07-25T15:10:41.635Z,18.64
2023-07-25T15:13:28.016Z,18.38
2023-07-25T15:16:14.634Z,18.60
2023-07-25T15:19:00.904Z,18.51
2023-07-25T15:21:47.600Z,18.70
2023-07-25T15:24:33.874Z,18.76
2023-07-25T15:27:20.985Z,18.77
2023-07-25T15:30:08.229Z,18.89
2023-07-25T15:32:54.764Z,18.40
2023-07-25T15:35:41.002Z,18.44
2023-07-25T15:38:27.262Z,18.16
2023-07-25T15:41:13.813Z,18.13
2023-07-25T15:44:00.024Z,17.94
2023-07-25T15:46:46.846Z,17.90
2023-07-25T15:49:33.290Z,17.96
2023-07-25T15:52:19.588Z,17.61
2023-07-25T15:55:06.318Z,17.81
2023-07-25T15:57:52.991Z,17.60
2023-07-25T16:00:39.622Z,17.72
2023-07-25T16:03:25.915Z,17.49
2023-07-25T16:06:12.546Z,17.55
2023-07-25T16:08:59.128Z,17.62
2023-07-25T16:11:45.485Z,17.57
2023-07-25T16:14:31.794Z,17.27
2023-07-25T16:17:18.505Z,16.90
2023-07-25T16:20:05.775Z,16.58
2023-07-25T16:22:51.975Z,15.88
2023-07-25T16:25:38.572Z,15.67
2023-07-25T16:28:25.567Z,15.63
2023-07-25T16:31:31.025Z,15.36
2023-07-25T16:34:18.042Z,14.90
2023-07-25T16:37:04.822Z,15.16
2023-07-25T16:39:51.300Z,14.81
2023-07-25T16:42:38.274Z,14.70
2023-07-25T16:45:24.617Z,15.03
2023-07-25T16:48:10.927Z,14.81
2023-07-25T16:50:57.076Z,14.88
2023-07-25T16:53:43.719Z,14.88
2023-07-25T16:56:30.480Z,14.95
2023-07-25T16:59:16.950Z,14.98
2023-07-25T17:02:03.397Z,14.60
2023-07-25T17:04:54.142Z,14.88
2023-07-25T17:07:40.564Z,14.68
2023-07-25T17:10:27.249Z,14.85
2023-07-25T17:13:15.095Z,14.85
2023-07-25T17:16:02.877Z,14.85
2023-07-25T17:18:49.130Z,14.97
2023-07-25T17:21:40.436Z,14.78
2023-07-25T17:24:29.418Z,15.05
2023-07-25T17:27:15.801Z,14.98
2023-07-25T17:30:02.301Z,14.87
2023-07-25T17:32:49.090Z,15.11
2023-07-25T17:35:38.301Z,15.09
2023-07-25T17:38:25.386Z,15.03
2023-07-25T17:41:12.287Z,14.76
2023-07-25T17:43:58.933Z,14.99
2023-07-25T17:46:45.049Z,14.96
2023-07-25T17:49:31.475Z,14.86
2023-07-25T17:52:18.033Z,14.69
2023-07-25T17:55:04.753Z,14.73
2023-07-25T17:57:51.410Z,14.82
2023-07-25T18:00:38.618Z,14.66
2023-07-25T18:03:25.019Z,14.55
2023-07-25T18:06:11.525Z,14.35
2023-07-25T18:08:58.133Z,14.52
2023-07-25T18:11:44.623Z,14.58
2023-07-25T18:14:31.349Z,14.72
2023-07-25T18:17:17.920Z,14.58
2023-07-25T18:20:04.941Z,14.71
2023-07-25T18:22:51.824Z,14.69
2023-07-25T18:25:40.214Z,14.65
2023-07-25T18:28:27.656Z,14.39
2023-07-25T18:31:14.142Z,14.49
2023-07-25T18:34:00.837Z,14.27
2023-07-25T18:36:47.379Z,14.25
2023-07-25T18:39:33.841Z,14.48
2023-07-25T18:42:20.487Z,14.13
2023-07-25T18:45:07.522Z,14.03
2023-07-25T18:47:54.066Z,14.35
2023-07-25T18:50:40.175Z,14.41
2023-07-25T18:53:26.708Z,13.98
2023-07-25T18:56:12.796Z,14.07
2023-07-25T18:58:59.157Z,14.08
2023-07-25T19:01:45.690Z,14.11
2023-07-25T19:04:31.960Z,14.21
2023-07-25T19:07:19.571Z,13.95
2023-07-25T19:10:06.419Z,13.95
2023-07-25T19:12:53.152Z,14.15
2023-07-25T19:15:39.643Z,14.03
2023-07-25T19:18:26.389Z,13.99
2023-07-25T19:21:12.502Z,14.05
2023-07-25T19:23:58.761Z,14.04
2023-07-25T19:26:45.172Z,13.83
2023-07-25T19:29:31.687Z,13.92
2023-07-25T19:32:17.997Z,14.01
2023-07-25T19:35:05.297Z,13.91
2023-07-25T19:37:52.245Z,13.99
2023-07-25T19:40:38.857Z,13.70
2023-07-25T19:43:25.117Z,14.07
2023-07-25T19:46:11.942Z,14.14
2023-07-25T19:48:58.372Z,13.82
2023-07-25T19:51:45.514Z,13.92
2023-07-25T19:54:32.243Z,14.04
2023-07-25T19:57:18.817Z,13.93
2023-07-25T20:00:06.059Z,13.89
2023-07-25T20:02:52.314Z,13.87
2023-07-25T20:05:38.673Z,13.72
2023-07-25T20:08:24.918Z,13.50
2023-07-25T20:11:11.392Z,14.12
2023-07-25T20:13:58.153Z,13.96
2023-07-25T20:16:44.562Z,13.61
2023-07-25T20:19:30.885Z,13.97
2023-07-25T20:22:17.262Z,14.05
2023-07-25T20:25:03.873Z,13.77
2023-07-25T20:27:50.127Z,13.92
2023-07-25T20:30:36.309Z,13.87
2023-07-25T20:33:22.920Z,13.94
2023-07-25T20:36:09.982Z,13.86
2023-07-25T20:38:56.567Z,13.78
2023-07-25T20:41:43.429Z,13.84
2023-07-25T20:44:29.908Z,13.70
2023-07-25T20:47:16.474Z,13.86
2023-07-25T20:50:05.222Z,13.81
2023-07-25T20:52:52.100Z,13.57
2023-07-25T20:55:38.790Z,13.76
2023-07-25T20:58:25.293Z,13.71
2023-07-25T21:01:11.792Z,13.81
2023-07-25T21:03:58.330Z,13.66
2023-07-25T21:06:44.565Z,13.45
2023-07-25T21:09:31.078Z,13.68
2023-07-25T21:12:17.667Z,13.58
2023-07-25T21:15:04.471Z,13.40
2023-07-25T21:18:02.803Z,13.61
2023-07-25T21:20:57.224Z,13.76
2023-07-25T21:23:43.495Z,13.51
2023-07-25T21:26:29.951Z,13.52
2023-07-25T21:29:16.596Z,13.78
2023-07-25T21:32:03.010Z,13.51
2023-07-25T21:34:49.382Z,13.31
2023-07-25T21:37:36.038Z,13.64
2023-07-25T21:40:22.490Z,13.38
2023-07-25T21:43:08.602Z,13.50
2023-07-25T21:45:56.346Z,13.60
2023-07-25T21:48:43.004Z,13.67
2023-07-25T21:51:29.617Z,13.64
2023-07-25T21:54:15.902Z,13.42
2023-07-25T21:57:02.345Z,13.68
2023-07-25T21:59:48.910Z,13.59
2023-07-25T22:02:35.090Z,13.59
2023-07-25T22:05:21.552Z,13.64
2023-07-25T22:08:09.274Z,13.51
2023-07-25T22:10:56.204Z,13.24
2023-07-25T22:13:42.537Z,13.49
2023-07-25T22:16:28.751Z,13.44
2023-07-25T22:19:15.037Z,13.21
2023-07-25T22:22:01.592Z,13.37
2023-07-25T22:24:47.832Z,13.35
2023-07-25T22:27:34.361Z,13.20
2023-07-25T22:30:21.206Z,13.36
2023-07-25T22:33:07.582Z,13.22
2023-07-25T22:35:54.183Z,13.10
2023-07-25T22:38:40.399Z,13.05
2023-07-25T22:41:26.635Z,13.26
2023-07-25T22:44:12.898Z,13.24
2023-07-25T22:46:59.394Z,12.64
2023-07-25T22:49:51.070Z,13.04
2023-07-25T22:52:37.626Z,13.09
2023-07-25T22:55:24.059Z,13.20
2023-07-25T22:58:10.305Z,13.18
2023-07-25T23:00:56.958Z,13.17
2023-07-25T23:03:43.554Z,13.27
2023-07-25T23:06:30.424Z,12.99
2023-07-25T23:09:18.200Z,13.19
2023-07-25T23:12:04.653Z,13.11
2023-07-25T23:14:51.178Z,13.20
2023-07-25T23:17:37.456Z,13.35
2023-07-25T23:20:23.897Z,13.33
2023-07-25T23:23:10.099Z,13.49
2023-07-25T23:25:56.512Z,13.59
2023-07-25T23:28:42.793Z,13.28
2023-07-25T23:31:29.589Z,13.34
2023-07-25T23:34:17.635Z,13.51
2023-07-25T23:37:04.492Z,13.53
2023-07-25T23:39:50.774Z,13.69
2023-07-25T23:42:36.996Z,13.65
2023-07-25T23:45:23.486Z,13.50
2023-07-25T23:48:09.618Z,13.46
2023-07-25T23:50:56.166Z,13.54
2023-07-25T23:53:42.680Z,13.62
2023-07-25T23:56:29.161Z,13.49
2023-07-25T23:59:15.842Z,13.68
